sensor_id;sensor_type;location;lat;lon;timestamp;P1;durP1;ratioP1;P2;durP2;ratioP2
15831;SDS011;8016;49.928;9.372;2023-09-30T00:01:09;5.83;;;4.50;;
15831;SDS011;8016;49.928;9.372;2023-09-30T00:03:36;7.67;;;4.30;;
15831;SDS011;8016;49.928;9.372;2023-09-30T00:06:02;12.33;;;5.00;;
15831;SDS011;8016;49.928;9.372;2023-09-30T00:08:28;4.90;;;4.37;;
15831;SDS011;8016;49.928;9.372;2023-09-30T00:10:54;6.37;;;3.77;;
15831;SDS011;8016;49.928;9.372;2023-09-30T00:13:20;8.37;;;4.63;;
15831;SDS011;8016;49.928;9.372;2023-09-30T00:15:46;12.63;;;5.53;;
15831;SDS011;8016;49.928;9.372;2023-09-30T00:18:13;6.67;;;4.40;;
15831;SDS011;8016;49.928;9.372;2023-09-30T00:20:39;8.50;;;4.43;;
15831;SDS011;8016;49.928;9.372;2023-09-30T00:23:05;6.77;;;4.17;;
15831;SDS011;8016;49.928;9.372;2023-09-30T00:25:31;8.63;;;4.03;;
15831;SDS011;8016;49.928;9.372;2023-09-30T00:27:57;8.07;;;4.30;;
15831;SDS011;8016;49.928;9.372;2023-09-30T00:30:23;6.17;;;3.90;;
15831;SDS011;8016;49.928;9.372;2023-09-30T00:32:49;6.47;;;3.80;;
15831;SDS011;8016;49.928;9.372;2023-09-30T00:35:15;7.47;;;4.03;;
15831;SDS011;8016;49.928;9.372;2023-09-30T00:37:42;7.67;;;4.13;;
15831;SDS011;8016;49.928;9.372;2023-09-30T00:40:08;8.03;;;4.23;;
15831;SDS011;8016;49.928;9.372;2023-09-30T00:42:38;8.40;;;4.63;;
15831;SDS011;8016;49.928;9.372;2023-09-30T00:45:05;7.93;;;3.93;;
15831;SDS011;8016;49.928;9.372;2023-09-30T00:47:31;8.17;;;4.13;;
15831;SDS011;8016;49.928;9.372;2023-09-30T00:49:58;8.20;;;4.00;;
15831;SDS011;8016;49.928;9.372;2023-09-30T00:52:24;6.73;;;4.17;;
15831;SDS011;8016;49.928;9.372;2023-09-30T00:54:50;6.73;;;3.77;;
15831;SDS011;8016;49.928;9.372;2023-09-30T00:57:17;6.63;;;4.03;;
15831;SDS011;8016;49.928;9.372;2023-09-30T00:59:45;9.33;;;3.90;;
15831;SDS011;8016;49.928;9.372;2023-09-30T01:02:11;6.50;;;3.73;;
15831;SDS011;8016;49.928;9.372;2023-09-30T01:04:37;6.67;;;3.43;;
15831;SDS011;8016;49.928;9.372;2023-09-30T01:07:03;8.03;;;4.03;;
15831;SDS011;8016;49.928;9.372;2023-09-30T01:09:30;8.10;;;4.37;;
15831;SDS011;8016;49.928;9.372;2023-09-30T01:11:56;5.30;;;3.50;;
15831;SDS011;8016;49.928;9.372;2023-09-30T01:14:26;8.43;;;4.07;;
15831;SDS011;8016;49.928;9.372;2023-09-30T01:16:52;6.67;;;3.47;;
15831;SDS011;8016;49.928;9.372;2023-09-30T01:19:18;6.30;;;3.67;;
15831;SDS011;8016;49.928;9.372;2023-09-30T01:21:44;6.03;;;3.70;;
15831;SDS011;8016;49.928;9.372;2023-09-30T01:24:13;8.20;;;4.20;;
15831;SDS011;8016;49.928;9.372;2023-09-30T01:26:39;7.00;;;3.97;;
15831;SDS011;8016;49.928;9.372;2023-09-30T01:29:07;6.70;;;3.83;;
15831;SDS011;8016;49.928;9.372;2023-09-30T01:31:36;5.20;;;3.83;;
15831;SDS011;8016;49.928;9.372;2023-09-30T01:34:02;7.93;;;3.90;;
15831;SDS011;8016;49.928;9.372;2023-09-30T01:36:28;6.87;;;3.70;;
15831;SDS011;8016;49.928;9.372;2023-09-30T01:38:54;8.10;;;4.37;;
15831;SDS011;8016;49.928;9.372;2023-09-30T01:41:20;8.33;;;4.23;;
15831;SDS011;8016;49.928;9.372;2023-09-30T01:43:46;8.73;;;4.13;;
15831;SDS011;8016;49.928;9.372;2023-09-30T01:46:12;7.43;;;4.07;;
15831;SDS011;8016;49.928;9.372;2023-09-30T01:48:38;11.00;;;3.90;;
15831;SDS011;8016;49.928;9.372;2023-09-30T01:51:04;9.70;;;4.17;;
15831;SDS011;8016;49.928;9.372;2023-09-30T01:53:31;10.27;;;4.40;;
15831;SDS011;8016;49.928;9.372;2023-09-30T01:55:57;6.83;;;3.90;;
15831;SDS011;8016;49.928;9.372;2023-09-30T01:58:23;5.77;;;4.20;;
15831;SDS011;8016;49.928;9.372;2023-09-30T02:00:50;8.50;;;4.20;;
15831;SDS011;8016;49.928;9.372;2023-09-30T02:03:16;6.97;;;4.90;;
15831;SDS011;8016;49.928;9.372;2023-09-30T02:05:42;10.27;;;4.47;;
15831;SDS011;8016;49.928;9.372;2023-09-30T02:08:08;8.47;;;5.00;;
15831;SDS011;8016;49.928;9.372;2023-09-30T02:10:34;6.10;;;5.00;;
15831;SDS011;8016;49.928;9.372;2023-09-30T02:13:00;8.23;;;4.70;;
15831;SDS011;8016;49.928;9.372;2023-09-30T02:15:26;9.43;;;5.13;;
15831;SDS011;8016;49.928;9.372;2023-09-30T02:17:53;9.47;;;5.17;;
15831;SDS011;8016;49.928;9.372;2023-09-30T02:20:18;8.17;;;5.40;;
15831;SDS011;8016;49.928;9.372;2023-09-30T02:22:47;9.77;;;5.80;;
15831;SDS011;8016;49.928;9.372;2023-09-30T02:25:14;6.90;;;6.20;;
15831;SDS011;8016;49.928;9.372;2023-09-30T02:27:43;10.57;;;6.53;;
15831;SDS011;8016;49.928;9.372;2023-09-30T02:30:10;10.57;;;6.87;;
15831;SDS011;8016;49.928;9.372;2023-09-30T02:32:37;11.63;;;7.97;;
15831;SDS011;8016;49.928;9.372;2023-09-30T02:35:04;10.47;;;8.40;;
15831;SDS011;8016;49.928;9.372;2023-09-30T02:37:31;11.50;;;8.47;;
15831;SDS011;8016;49.928;9.372;2023-09-30T02:40:00;11.23;;;8.27;;
15831;SDS011;8016;49.928;9.372;2023-09-30T02:42:26;11.13;;;9.47;;
15831;SDS011;8016;49.928;9.372;2023-09-30T02:44:52;13.53;;;8.83;;
15831;SDS011;8016;49.928;9.372;2023-09-30T02:47:18;12.90;;;9.50;;
15831;SDS011;8016;49.928;9.372;2023-09-30T02:49:44;10.20;;;8.97;;
15831;SDS011;8016;49.928;9.372;2023-09-30T02:52:10;15.87;;;10.00;;
15831;SDS011;8016;49.928;9.372;2023-09-30T02:54:36;15.03;;;8.90;;
15831;SDS011;8016;49.928;9.372;2023-09-30T02:57:02;13.33;;;9.93;;
15831;SDS011;8016;49.928;9.372;2023-09-30T02:59:29;13.20;;;10.47;;
15831;SDS011;8016;49.928;9.372;2023-09-30T03:01:55;9.70;;;8.73;;
15831;SDS011;8016;49.928;9.372;2023-09-30T03:04:21;12.57;;;10.60;;
15831;SDS011;8016;49.928;9.372;2023-09-30T03:06:51;13.10;;;9.93;;
15831;SDS011;8016;49.928;9.372;2023-09-30T03:09:17;14.23;;;10.77;;
15831;SDS011;8016;49.928;9.372;2023-09-30T03:11:43;14.73;;;10.00;;
15831;SDS011;8016;49.928;9.372;2023-09-30T03:14:09;17.63;;;11.23;;
15831;SDS011;8016;49.928;9.372;2023-09-30T03:16:36;20.77;;;12.07;;
15831;SDS011;8016;49.928;9.372;2023-09-30T03:19:05;12.27;;;10.57;;
15831;SDS011;8016;49.928;9.372;2023-09-30T03:21:34;13.70;;;10.10;;
15831;SDS011;8016;49.928;9.372;2023-09-30T03:24:01;12.43;;;11.00;;
15831;SDS011;8016;49.928;9.372;2023-09-30T03:26:28;14.80;;;11.13;;
15831;SDS011;8016;49.928;9.372;2023-09-30T03:28:54;16.43;;;11.33;;
15831;SDS011;8016;49.928;9.372;2023-09-30T03:31:20;13.43;;;11.83;;
15831;SDS011;8016;49.928;9.372;2023-09-30T03:33:47;13.60;;;10.27;;
15831;SDS011;8016;49.928;9.372;2023-09-30T03:36:13;12.60;;;10.63;;
15831;SDS011;8016;49.928;9.372;2023-09-30T03:38:40;16.53;;;11.73;;
15831;SDS011;8016;49.928;9.372;2023-09-30T03:41:06;12.87;;;10.20;;
15831;SDS011;8016;49.928;9.372;2023-09-30T03:43:33;14.03;;;11.97;;
15831;SDS011;8016;49.928;9.372;2023-09-30T03:46:05;19.93;;;11.47;;
15831;SDS011;8016;49.928;9.372;2023-09-30T03:48:31;15.83;;;11.53;;
15831;SDS011;8016;49.928;9.372;2023-09-30T03:51:07;12.03;;;10.50;;
15831;SDS011;8016;49.928;9.372;2023-09-30T03:53:33;15.13;;;10.83;;
15831;SDS011;8016;49.928;9.372;2023-09-30T03:55:59;12.70;;;11.17;;
15831;SDS011;8016;49.928;9.372;2023-09-30T03:58:25;15.10;;;11.90;;
15831;SDS011;8016;49.928;9.372;2023-09-30T04:00:51;19.50;;;12.13;;
15831;SDS011;8016;49.928;9.372;2023-09-30T04:03:17;17.50;;;11.23;;
15831;SDS011;8016;49.928;9.372;2023-09-30T04:05:43;16.23;;;10.97;;
15831;SDS011;8016;49.928;9.372;2023-09-30T04:08:09;12.77;;;10.57;;
15831;SDS011;8016;49.928;9.372;2023-09-30T04:10:36;17.40;;;10.80;;
15831;SDS011;8016;49.928;9.372;2023-09-30T04:13:02;15.47;;;10.53;;
15831;SDS011;8016;49.928;9.372;2023-09-30T04:15:28;16.30;;;10.23;;
15831;SDS011;8016;49.928;9.372;2023-09-30T04:17:56;16.57;;;11.00;;
15831;SDS011;8016;49.928;9.372;2023-09-30T04:20:25;13.77;;;11.47;;
15831;SDS011;8016;49.928;9.372;2023-09-30T04:22:52;15.27;;;10.80;;
15831;SDS011;8016;49.928;9.372;2023-09-30T04:25:22;16.23;;;11.23;;
15831;SDS011;8016;49.928;9.372;2023-09-30T04:27:49;13.00;;;11.07;;
15831;SDS011;8016;49.928;9.372;2023-09-30T04:30:16;18.83;;;12.33;;
15831;SDS011;8016;49.928;9.372;2023-09-30T04:32:42;13.37;;;11.60;;
15831;SDS011;8016;49.928;9.372;2023-09-30T04:35:09;16.37;;;11.57;;
15831;SDS011;8016;49.928;9.372;2023-09-30T04:37:35;15.13;;;13.53;;
15831;SDS011;8016;49.928;9.372;2023-09-30T04:40:05;18.20;;;14.77;;
15831;SDS011;8016;49.928;9.372;2023-09-30T04:42:44;16.27;;;12.47;;
15831;SDS011;8016;49.928;9.372;2023-09-30T04:45:12;16.33;;;12.90;;
15831;SDS011;8016;49.928;9.372;2023-09-30T04:47:38;15.10;;;11.97;;
15831;SDS011;8016;49.928;9.372;2023-09-30T04:50:07;14.37;;;12.10;;
15831;SDS011;8016;49.928;9.372;2023-09-30T04:52:34;18.97;;;13.80;;
15831;SDS011;8016;49.928;9.372;2023-09-30T04:55:00;17.83;;;12.10;;
15831;SDS011;8016;49.928;9.372;2023-09-30T04:57:32;16.77;;;12.30;;
15831;SDS011;8016;49.928;9.372;2023-09-30T04:59:58;18.60;;;12.90;;
15831;SDS011;8016;49.928;9.372;2023-09-30T05:02:24;16.67;;;11.53;;
15831;SDS011;8016;49.928;9.372;2023-09-30T05:04:50;17.83;;;12.40;;
15831;SDS011;8016;49.928;9.372;2023-09-30T05:07:17;20.60;;;13.40;;
15831;SDS011;8016;49.928;9.372;2023-09-30T05:09:43;19.23;;;14.57;;
15831;SDS011;8016;49.928;9.372;2023-09-30T05:12:10;18.97;;;14.20;;
15831;SDS011;8016;49.928;9.372;2023-09-30T05:14:36;15.47;;;13.23;;
15831;SDS011;8016;49.928;9.372;2023-09-30T05:17:03;16.47;;;13.90;;
15831;SDS011;8016;49.928;9.372;2023-09-30T05:19:32;21.87;;;16.60;;
15831;SDS011;8016;49.928;9.372;2023-09-30T05:21:58;30.00;;;17.30;;
15831;SDS011;8016;49.928;9.372;2023-09-30T05:24:25;20.23;;;15.27;;
15831;SDS011;8016;49.928;9.372;2023-09-30T05:26:57;19.77;;;14.23;;
15831;SDS011;8016;49.928;9.372;2023-09-30T05:29:24;21.43;;;14.43;;
15831;SDS011;8016;49.928;9.372;2023-09-30T05:31:50;23.97;;;14.70;;
15831;SDS011;8016;49.928;9.372;2023-09-30T05:34:16;18.23;;;13.87;;
15831;SDS011;8016;49.928;9.372;2023-09-30T05:36:42;15.63;;;13.03;;
15831;SDS011;8016;49.928;9.372;2023-09-30T05:39:08;16.10;;;13.00;;
15831;SDS011;8016;49.928;9.372;2023-09-30T05:41:35;18.93;;;13.47;;
15831;SDS011;8016;49.928;9.372;2023-09-30T05:44:02;19.10;;;13.77;;
15831;SDS011;8016;49.928;9.372;2023-09-30T05:46:28;22.43;;;16.40;;
15831;SDS011;8016;49.928;9.372;2023-09-30T05:48:56;44.37;;;39.63;;
15831;SDS011;8016;49.928;9.372;2023-09-30T05:51:22;31.07;;;26.40;;
15831;SDS011;8016;49.928;9.372;2023-09-30T05:53:48;20.10;;;14.77;;
15831;SDS011;8016;49.928;9.372;2023-09-30T05:56:14;17.67;;;13.80;;
15831;SDS011;8016;49.928;9.372;2023-09-30T05:58:41;17.97;;;13.17;;
15831;SDS011;8016;49.928;9.372;2023-09-30T06:01:07;16.67;;;13.83;;
15831;SDS011;8016;49.928;9.372;2023-09-30T06:03:37;18.00;;;13.93;;
15831;SDS011;8016;49.928;9.372;2023-09-30T06:06:15;17.50;;;12.53;;
15831;SDS011;8016;49.928;9.372;2023-09-30T06:08:42;14.07;;;11.83;;
15831;SDS011;8016;49.928;9.372;2023-09-30T06:11:18;22.50;;;12.83;;
15831;SDS011;8016;49.928;9.372;2023-09-30T06:13:44;20.63;;;13.67;;
15831;SDS011;8016;49.928;9.372;2023-09-30T06:16:14;19.17;;;13.27;;
15831;SDS011;8016;49.928;9.372;2023-09-30T06:18:41;20.57;;;13.07;;
15831;SDS011;8016;49.928;9.372;2023-09-30T06:21:07;16.77;;;13.40;;
15831;SDS011;8016;49.928;9.372;2023-09-30T06:23:35;15.50;;;12.07;;
15831;SDS011;8016;49.928;9.372;2023-09-30T06:26:01;15.83;;;12.93;;
15831;SDS011;8016;49.928;9.372;2023-09-30T06:28:27;15.37;;;12.83;;
15831;SDS011;8016;49.928;9.372;2023-09-30T06:30:56;15.17;;;13.23;;
15831;SDS011;8016;49.928;9.372;2023-09-30T06:33:22;15.23;;;13.63;;
15831;SDS011;8016;49.928;9.372;2023-09-30T06:35:48;14.13;;;12.70;;
15831;SDS011;8016;49.928;9.372;2023-09-30T06:38:20;12.23;;;10.97;;
15831;SDS011;8016;49.928;9.372;2023-09-30T06:40:46;13.93;;;11.47;;
15831;SDS011;8016;49.928;9.372;2023-09-30T06:43:16;12.43;;;11.23;;
15831;SDS011;8016;49.928;9.372;2023-09-30T06:45:42;12.30;;;11.10;;
15831;SDS011;8016;49.928;9.372;2023-09-30T06:48:08;12.77;;;11.30;;
15831;SDS011;8016;49.928;9.372;2023-09-30T06:50:37;11.30;;;10.07;;
15831;SDS011;8016;49.928;9.372;2023-09-30T06:53:03;11.40;;;10.20;;
15831;SDS011;8016;49.928;9.372;2023-09-30T06:55:30;11.30;;;9.97;;
15831;SDS011;8016;49.928;9.372;2023-09-30T06:57:56;11.10;;;9.60;;
15831;SDS011;8016;49.928;9.372;2023-09-30T07:00:22;10.50;;;9.50;;
15831;SDS011;8016;49.928;9.372;2023-09-30T07:02:50;11.20;;;10.00;;
15831;SDS011;8016;49.928;9.372;2023-09-30T07:05:16;12.13;;;10.17;;
15831;SDS011;8016;49.928;9.372;2023-09-30T07:07:42;11.83;;;10.57;;
15831;SDS011;8016;49.928;9.372;2023-09-30T07:10:09;11.07;;;9.97;;
15831;SDS011;8016;49.928;9.372;2023-09-30T07:12:35;12.80;;;10.87;;
15831;SDS011;8016;49.928;9.372;2023-09-30T07:15:02;13.03;;;10.97;;
15831;SDS011;8016;49.928;9.372;2023-09-30T07:17:28;13.80;;;11.20;;
15831;SDS011;8016;49.928;9.372;2023-09-30T07:19:55;16.70;;;13.27;;
15831;SDS011;8016;49.928;9.372;2023-09-30T07:22:21;19.50;;;15.37;;
15831;SDS011;8016;49.928;9.372;2023-09-30T07:24:47;15.40;;;11.43;;
15831;SDS011;8016;49.928;9.372;2023-09-30T07:27:13;12.23;;;10.40;;
15831;SDS011;8016;49.928;9.372;2023-09-30T07:29:40;12.67;;;10.37;;
15831;SDS011;8016;49.928;9.372;2023-09-30T07:32:07;12.67;;;9.47;;
15831;SDS011;8016;49.928;9.372;2023-09-30T07:34:34;12.10;;;9.10;;
15831;SDS011;8016;49.928;9.372;2023-09-30T07:37:00;10.07;;;9.00;;
15831;SDS011;8016;49.928;9.372;2023-09-30T07:39:26;10.67;;;7.13;;
15831;SDS011;8016;49.928;9.372;2023-09-30T07:41:52;10.40;;;6.87;;
15831;SDS011;8016;49.928;9.372;2023-09-30T07:44:18;9.63;;;6.60;;
15831;SDS011;8016;49.928;9.372;2023-09-30T07:46:44;11.83;;;6.00;;
15831;SDS011;8016;49.928;9.372;2023-09-30T07:49:10;8.43;;;6.17;;
15831;SDS011;8016;49.928;9.372;2023-09-30T07:51:36;8.07;;;6.18;;
15831;SDS011;8016;49.928;9.372;2023-09-30T07:54:04;9.27;;;6.60;;
15831;SDS011;8016;49.928;9.372;2023-09-30T07:56:30;13.57;;;6.27;;
15831;SDS011;8016;49.928;9.372;2023-09-30T07:58:56;7.20;;;5.60;;
15831;SDS011;8016;49.928;9.372;2023-09-30T08:01:22;7.40;;;5.30;;
15831;SDS011;8016;49.928;9.372;2023-09-30T08:03:48;8.33;;;6.07;;
15831;SDS011;8016;49.928;9.372;2023-09-30T08:06:15;8.07;;;5.80;;
15831;SDS011;8016;49.928;9.372;2023-09-30T08:08:41;8.40;;;6.03;;
15831;SDS011;8016;49.928;9.372;2023-09-30T08:11:07;8.67;;;6.43;;
15831;SDS011;8016;49.928;9.372;2023-09-30T08:13:33;10.20;;;6.30;;
15831;SDS011;8016;49.928;9.372;2023-09-30T08:16:00;8.43;;;6.10;;
15831;SDS011;8016;49.928;9.372;2023-09-30T08:18:29;32.80;;;26.53;;
15831;SDS011;8016;49.928;9.372;2023-09-30T08:20:55;8.33;;;6.30;;
15831;SDS011;8016;49.928;9.372;2023-09-30T08:23:21;10.23;;;6.37;;
15831;SDS011;8016;49.928;9.372;2023-09-30T08:25:47;12.07;;;5.93;;
15831;SDS011;8016;49.928;9.372;2023-09-30T08:28:14;6.63;;;5.30;;
15831;SDS011;8016;49.928;9.372;2023-09-30T08:30:41;9.53;;;5.57;;
15831;SDS011;8016;49.928;9.372;2023-09-30T08:33:08;11.60;;;6.63;;
15831;SDS011;8016;49.928;9.372;2023-09-30T08:35:37;6.73;;;5.07;;
15831;SDS011;8016;49.928;9.372;2023-09-30T08:38:06;9.67;;;6.20;;
15831;SDS011;8016;49.928;9.372;2023-09-30T08:40:32;8.23;;;5.80;;
15831;SDS011;8016;49.928;9.372;2023-09-30T08:42:58;11.10;;;6.07;;
15831;SDS011;8016;49.928;9.372;2023-09-30T08:45:24;8.33;;;5.97;;
15831;SDS011;8016;49.928;9.372;2023-09-30T08:47:54;8.63;;;6.43;;
15831;SDS011;8016;49.928;9.372;2023-09-30T08:50:23;17.17;;;12.10;;
15831;SDS011;8016;49.928;9.372;2023-09-30T08:52:50;17.67;;;11.87;;
15831;SDS011;8016;49.928;9.372;2023-09-30T08:55:18;10.03;;;5.97;;
15831;SDS011;8016;49.928;9.372;2023-09-30T08:57:44;8.77;;;5.83;;
15831;SDS011;8016;49.928;9.372;2023-09-30T09:00:10;9.43;;;6.20;;
15831;SDS011;8016;49.928;9.372;2023-09-30T09:02:37;11.60;;;6.13;;
15831;SDS011;8016;49.928;9.372;2023-09-30T09:05:03;8.97;;;6.07;;
15831;SDS011;8016;49.928;9.372;2023-09-30T09:07:29;14.83;;;7.57;;
15831;SDS011;8016;49.928;9.372;2023-09-30T09:10:11;7.40;;;6.23;;
15831;SDS011;8016;49.928;9.372;2023-09-30T09:12:40;8.30;;;5.87;;
15831;SDS011;8016;49.928;9.372;2023-09-30T09:15:07;11.50;;;6.70;;
15831;SDS011;8016;49.928;9.372;2023-09-30T09:17:43;6.40;;;5.10;;
15831;SDS011;8016;49.928;9.372;2023-09-30T09:20:19;9.60;;;5.90;;
15831;SDS011;8016;49.928;9.372;2023-09-30T09:22:47;10.57;;;4.97;;
15831;SDS011;8016;49.928;9.372;2023-09-30T09:25:13;9.20;;;5.63;;
15831;SDS011;8016;49.928;9.372;2023-09-30T09:27:39;9.60;;;5.80;;
15831;SDS011;8016;49.928;9.372;2023-09-30T09:30:15;7.97;;;5.40;;
15831;SDS011;8016;49.928;9.372;2023-09-30T09:32:54;10.03;;;5.50;;
15831;SDS011;8016;49.928;9.372;2023-09-30T09:35:21;9.37;;;5.23;;
15831;SDS011;8016;49.928;9.372;2023-09-30T09:40:45;9.97;;;6.03;;
15831;SDS011;8016;49.928;9.372;2023-09-30T09:43:11;15.17;;;7.63;;
15831;SDS011;8016;49.928;9.372;2023-09-30T09:45:37;12.60;;;6.87;;
15831;SDS011;8016;49.928;9.372;2023-09-30T09:48:04;7.83;;;6.03;;
15831;SDS011;8016;49.928;9.372;2023-09-30T09:50:30;9.00;;;6.17;;
15831;SDS011;8016;49.928;9.372;2023-09-30T09:53:01;7.37;;;6.10;;
15831;SDS011;8016;49.928;9.372;2023-09-30T09:55:27;8.43;;;5.53;;
15831;SDS011;8016;49.928;9.372;2023-09-30T09:57:53;7.53;;;5.50;;
15831;SDS011;8016;49.928;9.372;2023-09-30T10:00:22;7.07;;;4.93;;
15831;SDS011;8016;49.928;9.372;2023-09-30T10:02:49;6.73;;;4.20;;
15831;SDS011;8016;49.928;9.372;2023-09-30T10:05:15;9.37;;;4.73;;
15831;SDS011;8016;49.928;9.372;2023-09-30T10:07:56;7.17;;;4.80;;
15831;SDS011;8016;49.928;9.372;2023-09-30T10:10:23;7.27;;;4.93;;
15831;SDS011;8016;49.928;9.372;2023-09-30T10:12:50;8.03;;;4.87;;
15831;SDS011;8016;49.928;9.372;2023-09-30T10:18:01;8.33;;;5.37;;
15831;SDS011;8016;49.928;9.372;2023-09-30T10:20:29;8.17;;;5.50;;
15831;SDS011;8016;49.928;9.372;2023-09-30T10:25:39;9.33;;;5.33;;
15831;SDS011;8016;49.928;9.372;2023-09-30T10:36:37;5.87;;;4.30;;
15831;SDS011;8016;49.928;9.372;2023-09-30T10:39:04;8.73;;;4.67;;
15831;SDS011;8016;49.928;9.372;2023-09-30T10:46:52;7.23;;;4.60;;
15831;SDS011;8016;49.928;9.372;2023-09-30T10:51:50;10.70;;;4.87;;
15831;SDS011;8016;49.928;9.372;2023-09-30T10:54:21;7.03;;;5.00;;
15831;SDS011;8016;49.928;9.372;2023-09-30T10:56:48;7.60;;;4.73;;
15831;SDS011;8016;49.928;9.372;2023-09-30T10:59:23;6.37;;;3.97;;
15831;SDS011;8016;49.928;9.372;2023-09-30T11:01:50;8.60;;;4.50;;
15831;SDS011;8016;49.928;9.372;2023-09-30T11:04:17;7.27;;;4.00;;
15831;SDS011;8016;49.928;9.372;2023-09-30T11:06:44;8.43;;;4.37;;
15831;SDS011;8016;49.928;9.372;2023-09-30T11:09:15;8.10;;;3.90;;
15831;SDS011;8016;49.928;9.372;2023-09-30T11:11:42;5.80;;;3.60;;
15831;SDS011;8016;49.928;9.372;2023-09-30T11:16:48;9.77;;;6.33;;
15831;SDS011;8016;49.928;9.372;2023-09-30T11:19:15;7.33;;;4.43;;
15831;SDS011;8016;49.928;9.372;2023-09-30T11:21:41;8.93;;;4.17;;
15831;SDS011;8016;49.928;9.372;2023-09-30T11:24:08;9.10;;;4.87;;
15831;SDS011;8016;49.928;9.372;2023-09-30T11:26:35;11.33;;;5.50;;
15831;SDS011;8016;49.928;9.372;2023-09-30T11:29:05;6.63;;;4.80;;
15831;SDS011;8016;49.928;9.372;2023-09-30T11:31:31;9.47;;;4.37;;
15831;SDS011;8016;49.928;9.372;2023-09-30T11:33:59;10.47;;;6.43;;
15831;SDS011;8016;49.928;9.372;2023-09-30T11:36:34;8.13;;;5.73;;
15831;SDS011;8016;49.928;9.372;2023-09-30T11:39:05;5.83;;;4.47;;
15831;SDS011;8016;49.928;9.372;2023-09-30T11:41:38;7.03;;;4.70;;
15831;SDS011;8016;49.928;9.372;2023-09-30T11:44:11;8.23;;;5.00;;
15831;SDS011;8016;49.928;9.372;2023-09-30T11:46:51;8.33;;;4.67;;
15831;SDS011;8016;49.928;9.372;2023-09-30T11:49:28;8.63;;;4.50;;
15831;SDS011;8016;49.928;9.372;2023-09-30T11:51:58;6.10;;;4.43;;
15831;SDS011;8016;49.928;9.372;2023-09-30T11:54:28;10.87;;;4.83;;
15831;SDS011;8016;49.928;9.372;2023-09-30T11:56:55;5.77;;;4.77;;
15831;SDS011;8016;49.928;9.372;2023-09-30T11:59:21;7.57;;;4.43;;
15831;SDS011;8016;49.928;9.372;2023-09-30T12:01:47;7.23;;;4.40;;
15831;SDS011;8016;49.928;9.372;2023-09-30T12:04:14;9.10;;;4.77;;
15831;SDS011;8016;49.928;9.372;2023-09-30T12:06:42;6.50;;;4.50;;
15831;SDS011;8016;49.928;9.372;2023-09-30T12:09:08;5.80;;;3.90;;
15831;SDS011;8016;49.928;9.372;2023-09-30T12:11:38;8.10;;;4.10;;
15831;SDS011;8016;49.928;9.372;2023-09-30T12:14:05;7.17;;;4.50;;
15831;SDS011;8016;49.928;9.372;2023-09-30T12:16:31;7.40;;;3.40;;
15831;SDS011;8016;49.928;9.372;2023-09-30T12:18:57;7.70;;;3.50;;
15831;SDS011;8016;49.928;9.372;2023-09-30T12:21:23;6.23;;;3.90;;
15831;SDS011;8016;49.928;9.372;2023-09-30T12:23:49;5.50;;;3.73;;
15831;SDS011;8016;49.928;9.372;2023-09-30T12:26:16;6.57;;;3.83;;
15831;SDS011;8016;49.928;9.372;2023-09-30T12:28:48;7.10;;;4.20;;
15831;SDS011;8016;49.928;9.372;2023-09-30T12:31:14;7.33;;;4.00;;
15831;SDS011;8016;49.928;9.372;2023-09-30T12:33:40;7.27;;;3.90;;
15831;SDS011;8016;49.928;9.372;2023-09-30T12:36:06;7.60;;;4.30;;
15831;SDS011;8016;49.928;9.372;2023-09-30T12:38:33;9.57;;;4.80;;
15831;SDS011;8016;49.928;9.372;2023-09-30T12:40:59;10.10;;;4.97;;
15831;SDS011;8016;49.928;9.372;2023-09-30T12:43:25;9.40;;;4.57;;
15831;SDS011;8016;49.928;9.372;2023-09-30T12:45:51;8.10;;;3.80;;
15831;SDS011;8016;49.928;9.372;2023-09-30T12:48:17;5.83;;;3.57;;
15831;SDS011;8016;49.928;9.372;2023-09-30T12:50:44;5.40;;;3.80;;
15831;SDS011;8016;49.928;9.372;2023-09-30T12:53:10;7.80;;;4.30;;
15831;SDS011;8016;49.928;9.372;2023-09-30T12:55:36;7.20;;;4.30;;
15831;SDS011;8016;49.928;9.372;2023-09-30T12:58:02;8.63;;;4.80;;
15831;SDS011;8016;49.928;9.372;2023-09-30T13:00:29;8.73;;;4.70;;
15831;SDS011;8016;49.928;9.372;2023-09-30T13:02:57;8.80;;;4.77;;
15831;SDS011;8016;49.928;9.372;2023-09-30T13:05:23;7.60;;;4.33;;
15831;SDS011;8016;49.928;9.372;2023-09-30T13:07:50;8.87;;;4.60;;
15831;SDS011;8016;49.928;9.372;2023-09-30T13:10:18;9.23;;;4.37;;
15831;SDS011;8016;49.928;9.372;2023-09-30T13:12:44;9.23;;;4.67;;
15831;SDS011;8016;49.928;9.372;2023-09-30T13:15:10;8.80;;;4.20;;
15831;SDS011;8016;49.928;9.372;2023-09-30T13:17:39;6.77;;;4.10;;
15831;SDS011;8016;49.928;9.372;2023-09-30T13:20:05;9.40;;;4.27;;
15831;SDS011;8016;49.928;9.372;2023-09-30T13:22:33;7.43;;;4.10;;
15831;SDS011;8016;49.928;9.372;2023-09-30T13:25:03;9.37;;;4.50;;
15831;SDS011;8016;49.928;9.372;2023-09-30T13:27:30;8.57;;;4.30;;
15831;SDS011;8016;49.928;9.372;2023-09-30T13:29:59;7.60;;;4.40;;
15831;SDS011;8016;49.928;9.372;2023-09-30T13:32:26;6.43;;;4.30;;
15831;SDS011;8016;49.928;9.372;2023-09-30T13:34:52;8.43;;;4.40;;
15831;SDS011;8016;49.928;9.372;2023-09-30T13:37:19;7.63;;;4.40;;
15831;SDS011;8016;49.928;9.372;2023-09-30T13:39:45;7.53;;;4.43;;
15831;SDS011;8016;49.928;9.372;2023-09-30T13:42:11;12.83;;;8.63;;
15831;SDS011;8016;49.928;9.372;2023-09-30T13:44:37;7.83;;;4.23;;
15831;SDS011;8016;49.928;9.372;2023-09-30T13:47:03;7.07;;;4.17;;
15831;SDS011;8016;49.928;9.372;2023-09-30T13:49:29;9.03;;;4.90;;
15831;SDS011;8016;49.928;9.372;2023-09-30T13:51:55;6.77;;;4.30;;
15831;SDS011;8016;49.928;9.372;2023-09-30T13:54:21;6.67;;;4.93;;
15831;SDS011;8016;49.928;9.372;2023-09-30T13:56:47;8.73;;;4.73;;
15831;SDS011;8016;49.928;9.372;2023-09-30T13:59:13;8.63;;;4.40;;
15831;SDS011;8016;49.928;9.372;2023-09-30T14:01:39;11.13;;;8.13;;
15831;SDS011;8016;49.928;9.372;2023-09-30T14:04:10;7.43;;;4.33;;
15831;SDS011;8016;49.928;9.372;2023-09-30T14:06:36;7.70;;;4.97;;
15831;SDS011;8016;49.928;9.372;2023-09-30T14:09:03;10.47;;;4.93;;
15831;SDS011;8016;49.928;9.372;2023-09-30T14:11:33;7.47;;;4.70;;
15831;SDS011;8016;49.928;9.372;2023-09-30T14:13:59;9.77;;;4.57;;
15831;SDS011;8016;49.928;9.372;2023-09-30T14:16:25;7.97;;;4.60;;
15831;SDS011;8016;49.928;9.372;2023-09-30T14:18:51;6.43;;;3.97;;
15831;SDS011;8016;49.928;9.372;2023-09-30T14:21:17;8.63;;;4.63;;
15831;SDS011;8016;49.928;9.372;2023-09-30T14:23:43;7.93;;;4.77;;
15831;SDS011;8016;49.928;9.372;2023-09-30T14:26:09;8.03;;;4.27;;
15831;SDS011;8016;49.928;9.372;2023-09-30T14:28:36;8.43;;;4.10;;
15831;SDS011;8016;49.928;9.372;2023-09-30T14:31:03;5.97;;;4.03;;
15831;SDS011;8016;49.928;9.372;2023-09-30T14:33:29;7.10;;;4.23;;
15831;SDS011;8016;49.928;9.372;2023-09-30T14:35:55;7.40;;;4.30;;
15831;SDS011;8016;49.928;9.372;2023-09-30T14:38:21;6.17;;;3.90;;
15831;SDS011;8016;49.928;9.372;2023-09-30T14:40:48;6.07;;;3.63;;
15831;SDS011;8016;49.928;9.372;2023-09-30T14:43:15;9.57;;;6.47;;
15831;SDS011;8016;49.928;9.372;2023-09-30T14:45:41;12.37;;;9.03;;
15831;SDS011;8016;49.928;9.372;2023-09-30T14:48:07;6.87;;;4.20;;
15831;SDS011;8016;49.928;9.372;2023-09-30T14:50:34;6.30;;;3.87;;
15831;SDS011;8016;49.928;9.372;2023-09-30T14:53:01;9.43;;;4.20;;
15831;SDS011;8016;49.928;9.372;2023-09-30T14:55:27;7.43;;;3.97;;
15831;SDS011;8016;49.928;9.372;2023-09-30T14:57:54;6.57;;;3.37;;
15831;SDS011;8016;49.928;9.372;2023-09-30T15:00:20;6.33;;;3.70;;
15831;SDS011;8016;49.928;9.372;2023-09-30T15:02:49;6.10;;;3.90;;
15831;SDS011;8016;49.928;9.372;2023-09-30T15:05:15;19.60;;;11.80;;
15831;SDS011;8016;49.928;9.372;2023-09-30T15:07:42;22.23;;;12.53;;
15831;SDS011;8016;49.928;9.372;2023-09-30T15:10:08;6.23;;;3.50;;
15831;SDS011;8016;49.928;9.372;2023-09-30T15:12:34;7.00;;;3.97;;
15831;SDS011;8016;49.928;9.372;2023-09-30T15:15:00;6.30;;;4.03;;
15831;SDS011;8016;49.928;9.372;2023-09-30T15:17:26;6.67;;;3.83;;